메인 페이지
METAR-TAF:

METAR-TAF

공항 :

코토카 국제공항

아크라, 가나

위도: 05-36N, 경도: 000-10W, 고도: 68m

현재 날씨관측

예보는 46분 전, 08:00시(UTC)에 발표되었습니다.
8kt
온도 27°C
습도 89%
기압 1013 hPa
시정 10km 이상
1500m 미만 상공 구름 및 적란운 없음

METAR: DGAA 040800Z 27008KT CAVOK 27/25 Q1013 NOSIG

시각: 08:46 (08:46 UTC)

예보

예보는 3 시간 46분 전, 05:00시(UTC)에 발표되었습니다.
예보 대상 시간: 04일 06시부터 05일 12시까지 (UTC)
5kt
시정 10km 이상
고도 1500ft 상공 구름 보통
전환 중
04일 12시부터 04일 14시까지 (UTC)
12kt
확률 30% :
일시적
04일 16시부터 04일 20시까지 (UTC)
고도 2500ft 상공 구름 보통, 적란운.
뇌우
05일 0200시부터 (UTC)
7kt
시정 10km 이상
1500m 미만 상공 구름 및 적란운 없음

TAF: DGAA 040500Z 0406/0512 28005KT 9999 SCT015 BECMG 0412/0414 19012KT PROB30 TEMPO 0416/0420 TS SCT025CB FM050200 26007KT CAVOK

4,000개 이상의 공항 관측 자료 및 예보 (METAR 및 TAF 보고).

지도상에서 검색 가능한 기상관측소가 노란 점과 빨간 점으로 표시되어 있습니다.

기상관측소 명을 보려면 표시 위로 마우스를 이동하세요.

날씨 관측과 예보를 보려면 클릭하세요.

지도 변경 : 확대하려면 엑스 표시가 있는 녹색 버튼, 축소하려면 빼기 표시가 있는 녹색 버튼, 다음 페이지의 지도를 보려면 녹색 화살표를 클릭하세요.


METAR-TAF: